sensor_id;sensor_type;location;lat;lon;timestamp;P1;durP1;ratioP1;P2;durP2;ratioP2
47289;SDS011;33197;52.524;13.444;2023-07-02T00:00:06;2.40;;;1.90;;
47289;SDS011;33197;52.524;13.444;2023-07-02T00:02:35;3.97;;;2.13;;
47289;SDS011;33197;52.524;13.444;2023-07-02T00:05:03;2.50;;;1.48;;
47289;SDS011;33197;52.524;13.444;2023-07-02T00:07:30;5.03;;;1.60;;
47289;SDS011;33197;52.524;13.444;2023-07-02T00:09:58;3.45;;;1.80;;
47289;SDS011;33197;52.524;13.444;2023-07-02T00:12:25;4.53;;;2.10;;
47289;SDS011;33197;52.524;13.444;2023-07-02T00:14:52;2.67;;;1.80;;
47289;SDS011;33197;52.524;13.444;2023-07-02T00:17:20;2.55;;;1.65;;
47289;SDS011;33197;52.524;13.444;2023-07-02T00:19:49;3.00;;;1.70;;
47289;SDS011;33197;52.524;13.444;2023-07-02T00:22:19;2.67;;;1.70;;
47289;SDS011;33197;52.524;13.444;2023-07-02T00:24:47;1.67;;;1.58;;
47289;SDS011;33197;52.524;13.444;2023-07-02T00:27:14;4.47;;;2.17;;
47289;SDS011;33197;52.524;13.444;2023-07-02T00:29:42;2.22;;;1.80;;
47289;SDS011;33197;52.524;13.444;2023-07-02T00:32:09;2.47;;;2.22;;
47289;SDS011;33197;52.524;13.444;2023-07-02T00:34:36;3.38;;;2.13;;
47289;SDS011;33197;52.524;13.444;2023-07-02T00:37:03;2.55;;;2.03;;
47289;SDS011;33197;52.524;13.444;2023-07-02T00:39:30;3.80;;;2.42;;
47289;SDS011;33197;52.524;13.444;2023-07-02T00:42:01;7.88;;;2.53;;
47289;SDS011;33197;52.524;13.444;2023-07-02T00:44:29;10.07;;;2.10;;
47289;SDS011;33197;52.524;13.444;2023-07-02T00:46:57;3.65;;;2.38;;
47289;SDS011;33197;52.524;13.444;2023-07-02T00:49:25;3.83;;;1.92;;
47289;SDS011;33197;52.524;13.444;2023-07-02T00:51:52;3.58;;;2.47;;
47289;SDS011;33197;52.524;13.444;2023-07-02T00:54:19;3.50;;;2.80;;
47289;SDS011;33197;52.524;13.444;2023-07-02T00:56:46;4.13;;;2.72;;
47289;SDS011;33197;52.524;13.444;2023-07-02T00:59:19;2.60;;;2.40;;
47289;SDS011;33197;52.524;13.444;2023-07-02T01:01:46;3.88;;;2.72;;
47289;SDS011;33197;52.524;13.444;2023-07-02T01:04:17;3.92;;;3.53;;
47289;SDS011;33197;52.524;13.444;2023-07-02T01:06:44;6.60;;;3.17;;
47289;SDS011;33197;52.524;13.444;2023-07-02T01:09:12;4.57;;;3.08;;
47289;SDS011;33197;52.524;13.444;2023-07-02T01:11:46;4.18;;;3.20;;
47289;SDS011;33197;52.524;13.444;2023-07-02T01:14:28;5.22;;;3.10;;
47289;SDS011;33197;52.524;13.444;2023-07-02T01:17:07;7.32;;;4.40;;
47289;SDS011;33197;52.524;13.444;2023-07-02T01:19:51;5.70;;;3.92;;
47289;SDS011;33197;52.524;13.444;2023-07-02T01:22:24;4.57;;;3.75;;
47289;SDS011;33197;52.524;13.444;2023-07-02T01:24:52;6.90;;;4.10;;
47289;SDS011;33197;52.524;13.444;2023-07-02T01:27:20;4.57;;;3.60;;
47289;SDS011;33197;52.524;13.444;2023-07-02T01:29:51;4.55;;;4.00;;
47289;SDS011;33197;52.524;13.444;2023-07-02T01:32:18;5.60;;;4.13;;
47289;SDS011;33197;52.524;13.444;2023-07-02T01:34:45;8.07;;;4.47;;
47289;SDS011;33197;52.524;13.444;2023-07-02T01:37:15;8.63;;;4.25;;
47289;SDS011;33197;52.524;13.444;2023-07-02T01:39:46;8.73;;;4.80;;
47289;SDS011;33197;52.524;13.444;2023-07-02T01:42:14;5.68;;;4.78;;
47289;SDS011;33197;52.524;13.444;2023-07-02T01:44:46;13.07;;;5.35;;
47289;SDS011;33197;52.524;13.444;2023-07-02T01:47:14;5.35;;;4.10;;
47289;SDS011;33197;52.524;13.444;2023-07-02T01:49:43;5.97;;;4.72;;
47289;SDS011;33197;52.524;13.444;2023-07-02T01:52:10;6.63;;;4.72;;
47289;SDS011;33197;52.524;13.444;2023-07-02T01:54:37;6.97;;;4.95;;
47289;SDS011;33197;52.524;13.444;2023-07-02T01:57:04;7.05;;;4.45;;
47289;SDS011;33197;52.524;13.444;2023-07-02T01:59:32;8.43;;;5.05;;
47289;SDS011;33197;52.524;13.444;2023-07-02T02:01:59;4.93;;;4.40;;
47289;SDS011;33197;52.524;13.444;2023-07-02T02:04:26;11.07;;;5.18;;
47289;SDS011;33197;52.524;13.444;2023-07-02T02:06:54;6.65;;;5.50;;
47289;SDS011;33197;52.524;13.444;2023-07-02T02:09:21;7.45;;;5.60;;
47289;SDS011;33197;52.524;13.444;2023-07-02T02:11:49;7.30;;;5.65;;
47289;SDS011;33197;52.524;13.444;2023-07-02T02:14:17;6.78;;;6.18;;
47289;SDS011;33197;52.524;13.444;2023-07-02T02:20:02;8.38;;;6.50;;
47289;SDS011;33197;52.524;13.444;2023-07-02T02:22:32;11.65;;;6.50;;
47289;SDS011;33197;52.524;13.444;2023-07-02T02:24:59;7.78;;;6.05;;
47289;SDS011;33197;52.524;13.444;2023-07-02T02:27:27;7.70;;;5.55;;
47289;SDS011;33197;52.524;13.444;2023-07-02T02:29:54;9.50;;;5.65;;
47289;SDS011;33197;52.524;13.444;2023-07-02T02:32:21;8.60;;;6.05;;
47289;SDS011;33197;52.524;13.444;2023-07-02T02:38:19;6.95;;;5.47;;
47289;SDS011;33197;52.524;13.444;2023-07-02T02:40:46;6.65;;;5.25;;
47289;SDS011;33197;52.524;13.444;2023-07-02T02:43:14;7.43;;;4.93;;
47289;SDS011;33197;52.524;13.444;2023-07-02T02:45:43;9.07;;;5.97;;
47289;SDS011;33197;52.524;13.444;2023-07-02T02:48:10;10.30;;;5.78;;
47289;SDS011;33197;52.524;13.444;2023-07-02T02:50:38;8.27;;;5.50;;
47289;SDS011;33197;52.524;13.444;2023-07-02T02:53:08;6.40;;;5.03;;
47289;SDS011;33197;52.524;13.444;2023-07-02T02:55:35;6.28;;;4.85;;
47289;SDS011;33197;52.524;13.444;2023-07-02T02:58:03;8.38;;;4.82;;
47289;SDS011;33197;52.524;13.444;2023-07-02T03:00:30;6.63;;;4.50;;
47289;SDS011;33197;52.524;13.444;2023-07-02T03:02:58;5.78;;;4.68;;
47289;SDS011;33197;52.524;13.444;2023-07-02T03:05:25;8.52;;;5.57;;
47289;SDS011;33197;52.524;13.444;2023-07-02T03:07:53;7.80;;;5.07;;
47289;SDS011;33197;52.524;13.444;2023-07-02T03:10:20;5.88;;;4.32;;
47289;SDS011;33197;52.524;13.444;2023-07-02T03:12:48;9.23;;;5.65;;
47289;SDS011;33197;52.524;13.444;2023-07-02T03:15:15;10.43;;;6.10;;
47289;SDS011;33197;52.524;13.444;2023-07-02T03:17:44;7.07;;;4.75;;
47289;SDS011;33197;52.524;13.444;2023-07-02T03:20:11;6.30;;;4.35;;
47289;SDS011;33197;52.524;13.444;2023-07-02T03:22:39;6.50;;;5.13;;
47289;SDS011;33197;52.524;13.444;2023-07-02T03:25:06;5.47;;;4.90;;
47289;SDS011;33197;52.524;13.444;2023-07-02T03:27:34;7.03;;;4.55;;
47289;SDS011;33197;52.524;13.444;2023-07-02T03:30:01;7.25;;;4.65;;
47289;SDS011;33197;52.524;13.444;2023-07-02T03:32:28;4.80;;;4.28;;
47289;SDS011;33197;52.524;13.444;2023-07-02T03:34:55;6.47;;;4.40;;
47289;SDS011;33197;52.524;13.444;2023-07-02T03:37:22;6.00;;;4.28;;
47289;SDS011;33197;52.524;13.444;2023-07-02T03:39:50;13.25;;;4.45;;
47289;SDS011;33197;52.524;13.444;2023-07-02T03:42:17;7.70;;;5.00;;
47289;SDS011;33197;52.524;13.444;2023-07-02T03:44:44;7.90;;;5.00;;
47289;SDS011;33197;52.524;13.444;2023-07-02T03:47:11;6.75;;;4.65;;
47289;SDS011;33197;52.524;13.444;2023-07-02T03:49:39;4.28;;;3.60;;
47289;SDS011;33197;52.524;13.444;2023-07-02T03:52:07;5.93;;;3.78;;
47289;SDS011;33197;52.524;13.444;2023-07-02T03:54:34;4.00;;;3.60;;
47289;SDS011;33197;52.524;13.444;2023-07-02T03:57:01;8.80;;;3.83;;
47289;SDS011;33197;52.524;13.444;2023-07-02T03:59:29;5.10;;;3.10;;
47289;SDS011;33197;52.524;13.444;2023-07-02T04:01:56;7.68;;;3.55;;
47289;SDS011;33197;52.524;13.444;2023-07-02T04:04:23;6.25;;;3.40;;
47289;SDS011;33197;52.524;13.444;2023-07-02T04:06:50;7.00;;;3.85;;
47289;SDS011;33197;52.524;13.444;2023-07-02T04:09:18;10.45;;;3.47;;
47289;SDS011;33197;52.524;13.444;2023-07-02T04:11:45;6.55;;;3.45;;
47289;SDS011;33197;52.524;13.444;2023-07-02T04:14:13;3.97;;;2.63;;
47289;SDS011;33197;52.524;13.444;2023-07-02T04:16:40;8.68;;;3.42;;
47289;SDS011;33197;52.524;13.444;2023-07-02T04:19:10;8.65;;;3.60;;
47289;SDS011;33197;52.524;13.444;2023-07-02T04:21:37;11.45;;;3.58;;
47289;SDS011;33197;52.524;13.444;2023-07-02T04:24:05;8.13;;;3.35;;
47289;SDS011;33197;52.524;13.444;2023-07-02T04:26:32;11.02;;;3.72;;
47289;SDS011;33197;52.524;13.444;2023-07-02T04:29:20;6.82;;;3.50;;
47289;SDS011;33197;52.524;13.444;2023-07-02T04:31:47;8.90;;;3.25;;
47289;SDS011;33197;52.524;13.444;2023-07-02T04:34:14;4.72;;;2.85;;
47289;SDS011;33197;52.524;13.444;2023-07-02T04:36:42;5.68;;;3.53;;
47289;SDS011;33197;52.524;13.444;2023-07-02T04:39:10;4.75;;;2.88;;
47289;SDS011;33197;52.524;13.444;2023-07-02T04:41:37;6.13;;;3.28;;
47289;SDS011;33197;52.524;13.444;2023-07-02T04:44:05;8.95;;;3.13;;
47289;SDS011;33197;52.524;13.444;2023-07-02T04:46:32;3.83;;;2.97;;
47289;SDS011;33197;52.524;13.444;2023-07-02T04:48:59;6.53;;;3.33;;
47289;SDS011;33197;52.524;13.444;2023-07-02T04:51:27;6.78;;;2.88;;
47289;SDS011;33197;52.524;13.444;2023-07-02T04:53:54;4.93;;;2.97;;
47289;SDS011;33197;52.524;13.444;2023-07-02T04:56:22;10.25;;;3.20;;
47289;SDS011;33197;52.524;13.444;2023-07-02T04:58:49;5.25;;;3.15;;
47289;SDS011;33197;52.524;13.444;2023-07-02T05:01:16;6.07;;;3.42;;
47289;SDS011;33197;52.524;13.444;2023-07-02T05:03:44;7.13;;;2.70;;
47289;SDS011;33197;52.524;13.444;2023-07-02T05:06:11;5.47;;;3.08;;
47289;SDS011;33197;52.524;13.444;2023-07-02T05:08:38;11.20;;;2.50;;
47289;SDS011;33197;52.524;13.444;2023-07-02T05:11:08;7.72;;;3.15;;
47289;SDS011;33197;52.524;13.444;2023-07-02T05:13:35;5.32;;;2.67;;
47289;SDS011;33197;52.524;13.444;2023-07-02T05:16:03;4.85;;;2.47;;
47289;SDS011;33197;52.524;13.444;2023-07-02T05:18:30;4.15;;;2.95;;
47289;SDS011;33197;52.524;13.444;2023-07-02T05:20:57;6.50;;;2.50;;
47289;SDS011;33197;52.524;13.444;2023-07-02T05:23:25;5.90;;;2.85;;
47289;SDS011;33197;52.524;13.444;2023-07-02T05:25:52;6.90;;;2.40;;
47289;SDS011;33197;52.524;13.444;2023-07-02T05:28:19;6.03;;;2.33;;
47289;SDS011;33197;52.524;13.444;2023-07-02T05:30:46;13.60;;;3.50;;
47289;SDS011;33197;52.524;13.444;2023-07-02T05:33:14;6.65;;;3.05;;
47289;SDS011;33197;52.524;13.444;2023-07-02T05:35:41;3.85;;;2.10;;
47289;SDS011;33197;52.524;13.444;2023-07-02T05:38:09;5.25;;;2.97;;
47289;SDS011;33197;52.524;13.444;2023-07-02T05:40:36;8.18;;;2.80;;
47289;SDS011;33197;52.524;13.444;2023-07-02T05:43:04;5.97;;;2.72;;
47289;SDS011;33197;52.524;13.444;2023-07-02T05:45:37;5.53;;;2.47;;
47289;SDS011;33197;52.524;13.444;2023-07-02T05:48:04;4.82;;;2.47;;
47289;SDS011;33197;52.524;13.444;2023-07-02T05:50:31;8.88;;;3.38;;
47289;SDS011;33197;52.524;13.444;2023-07-02T05:52:59;6.78;;;3.05;;
47289;SDS011;33197;52.524;13.444;2023-07-02T05:55:26;6.45;;;2.42;;
47289;SDS011;33197;52.524;13.444;2023-07-02T05:57:53;8.25;;;2.80;;
47289;SDS011;33197;52.524;13.444;2023-07-02T06:00:21;9.15;;;2.50;;
47289;SDS011;33197;52.524;13.444;2023-07-02T06:02:48;8.60;;;2.90;;
47289;SDS011;33197;52.524;13.444;2023-07-02T06:05:16;3.25;;;2.45;;
47289;SDS011;33197;52.524;13.444;2023-07-02T06:07:43;20.88;;;3.25;;
47289;SDS011;33197;52.524;13.444;2023-07-02T06:10:10;6.32;;;2.50;;
47289;SDS011;33197;52.524;13.444;2023-07-02T06:12:37;7.25;;;2.20;;
47289;SDS011;33197;52.524;13.444;2023-07-02T06:15:05;6.03;;;2.40;;
47289;SDS011;33197;52.524;13.444;2023-07-02T06:17:33;6.20;;;2.70;;
47289;SDS011;33197;52.524;13.444;2023-07-02T06:20:03;6.00;;;3.03;;
47289;SDS011;33197;52.524;13.444;2023-07-02T06:22:34;9.20;;;2.92;;
47289;SDS011;33197;52.524;13.444;2023-07-02T06:25:01;7.45;;;2.95;;
47289;SDS011;33197;52.524;13.444;2023-07-02T06:27:31;10.65;;;3.10;;
47289;SDS011;33197;52.524;13.444;2023-07-02T06:29:59;8.45;;;2.90;;
47289;SDS011;33197;52.524;13.444;2023-07-02T06:32:26;7.45;;;2.70;;
47289;SDS011;33197;52.524;13.444;2023-07-02T06:34:53;3.72;;;2.65;;
47289;SDS011;33197;52.524;13.444;2023-07-02T06:37:20;4.88;;;2.95;;
47289;SDS011;33197;52.524;13.444;2023-07-02T06:39:47;6.25;;;3.05;;
47289;SDS011;33197;52.524;13.444;2023-07-02T06:42:15;7.75;;;3.15;;
47289;SDS011;33197;52.524;13.444;2023-07-02T06:44:42;6.43;;;3.33;;
47289;SDS011;33197;52.524;13.444;2023-07-02T06:47:09;7.20;;;3.15;;
47289;SDS011;33197;52.524;13.444;2023-07-02T06:49:37;6.53;;;2.63;;
47289;SDS011;33197;52.524;13.444;2023-07-02T06:52:04;5.65;;;2.60;;
47289;SDS011;33197;52.524;13.444;2023-07-02T06:54:31;7.28;;;3.30;;
47289;SDS011;33197;52.524;13.444;2023-07-02T06:56:58;3.97;;;2.38;;
47289;SDS011;33197;52.524;13.444;2023-07-02T06:59:26;4.35;;;2.70;;
47289;SDS011;33197;52.524;13.444;2023-07-02T07:01:53;4.60;;;2.70;;
47289;SDS011;33197;52.524;13.444;2023-07-02T07:04:20;5.03;;;2.50;;
47289;SDS011;33197;52.524;13.444;2023-07-02T07:06:48;4.57;;;2.50;;
47289;SDS011;33197;52.524;13.444;2023-07-02T07:09:15;6.05;;;2.90;;
47289;SDS011;33197;52.524;13.444;2023-07-02T07:11:44;6.47;;;2.72;;
47289;SDS011;33197;52.524;13.444;2023-07-02T07:14:12;6.60;;;2.83;;
47289;SDS011;33197;52.524;13.444;2023-07-02T07:16:39;7.63;;;3.35;;
47289;SDS011;33197;52.524;13.444;2023-07-02T07:19:06;6.35;;;2.95;;
47289;SDS011;33197;52.524;13.444;2023-07-02T07:21:34;7.32;;;2.90;;
47289;SDS011;33197;52.524;13.444;2023-07-02T07:24:01;6.47;;;3.25;;
47289;SDS011;33197;52.524;13.444;2023-07-02T07:26:29;6.57;;;3.10;;
47289;SDS011;33197;52.524;13.444;2023-07-02T07:28:56;4.57;;;2.80;;
47289;SDS011;33197;52.524;13.444;2023-07-02T07:31:24;5.30;;;2.53;;
47289;SDS011;33197;52.524;13.444;2023-07-02T07:33:52;11.15;;;2.90;;
47289;SDS011;33197;52.524;13.444;2023-07-02T07:36:19;8.48;;;2.97;;
47289;SDS011;33197;52.524;13.444;2023-07-02T07:38:46;7.72;;;3.20;;
47289;SDS011;33197;52.524;13.444;2023-07-02T07:41:13;8.52;;;2.75;;
47289;SDS011;33197;52.524;13.444;2023-07-02T07:43:41;6.55;;;3.50;;
47289;SDS011;33197;52.524;13.444;2023-07-02T07:46:08;4.07;;;2.88;;
47289;SDS011;33197;52.524;13.444;2023-07-02T07:48:35;7.53;;;2.90;;
47289;SDS011;33197;52.524;13.444;2023-07-02T07:51:02;5.07;;;2.50;;
47289;SDS011;33197;52.524;13.444;2023-07-02T07:53:30;4.72;;;2.50;;
47289;SDS011;33197;52.524;13.444;2023-07-02T07:55:57;4.93;;;2.92;;
47289;SDS011;33197;52.524;13.444;2023-07-02T07:58:25;6.55;;;2.90;;
47289;SDS011;33197;52.524;13.444;2023-07-02T08:00:52;4.88;;;2.67;;
47289;SDS011;33197;52.524;13.444;2023-07-02T08:03:19;7.05;;;3.22;;
47289;SDS011;33197;52.524;13.444;2023-07-02T08:05:47;6.18;;;2.33;;
47289;SDS011;33197;52.524;13.444;2023-07-02T08:08:14;4.78;;;2.70;;
47289;SDS011;33197;52.524;13.444;2023-07-02T08:10:41;3.90;;;2.50;;
47289;SDS011;33197;52.524;13.444;2023-07-02T08:13:09;6.45;;;2.55;;
47289;SDS011;33197;52.524;13.444;2023-07-02T08:15:37;5.43;;;2.67;;
47289;SDS011;33197;52.524;13.444;2023-07-02T08:18:04;5.63;;;2.50;;
47289;SDS011;33197;52.524;13.444;2023-07-02T08:20:34;4.05;;;2.55;;
47289;SDS011;33197;52.524;13.444;2023-07-02T08:23:01;8.75;;;3.50;;
47289;SDS011;33197;52.524;13.444;2023-07-02T08:25:28;5.97;;;3.20;;
47289;SDS011;33197;52.524;13.444;2023-07-02T08:27:56;13.18;;;3.28;;
47289;SDS011;33197;52.524;13.444;2023-07-02T08:30:23;8.82;;;3.00;;
47289;SDS011;33197;52.524;13.444;2023-07-02T08:32:52;8.20;;;3.13;;
47289;SDS011;33197;52.524;13.444;2023-07-02T08:35:21;3.75;;;2.22;;
47289;SDS011;33197;52.524;13.444;2023-07-02T08:37:48;9.05;;;3.40;;
47289;SDS011;33197;52.524;13.444;2023-07-02T08:40:16;5.97;;;3.45;;
47289;SDS011;33197;52.524;13.444;2023-07-02T08:42:47;5.15;;;3.15;;
47289;SDS011;33197;52.524;13.444;2023-07-02T08:45:15;7.18;;;3.20;;
47289;SDS011;33197;52.524;13.444;2023-07-02T08:47:43;14.45;;;3.50;;
47289;SDS011;33197;52.524;13.444;2023-07-02T08:50:12;8.05;;;3.15;;
47289;SDS011;33197;52.524;13.444;2023-07-02T08:52:40;8.57;;;3.85;;
47289;SDS011;33197;52.524;13.444;2023-07-02T08:55:09;9.00;;;3.60;;
47289;SDS011;33197;52.524;13.444;2023-07-02T08:57:36;11.25;;;4.47;;
47289;SDS011;33197;52.524;13.444;2023-07-02T09:00:07;10.35;;;3.92;;
47289;SDS011;33197;52.524;13.444;2023-07-02T09:02:36;6.60;;;3.63;;
47289;SDS011;33197;52.524;13.444;2023-07-02T09:05:04;7.22;;;3.65;;
47289;SDS011;33197;52.524;13.444;2023-07-02T09:07:32;8.55;;;3.78;;
47289;SDS011;33197;52.524;13.444;2023-07-02T09:09:59;7.93;;;3.80;;
47289;SDS011;33197;52.524;13.444;2023-07-02T09:14:55;12.93;;;4.15;;
47289;SDS011;33197;52.524;13.444;2023-07-02T09:17:32;5.35;;;3.50;;
47289;SDS011;33197;52.524;13.444;2023-07-02T09:20:05;7.57;;;4.18;;
47289;SDS011;33197;52.524;13.444;2023-07-02T09:22:35;8.05;;;4.10;;
47289;SDS011;33197;52.524;13.444;2023-07-02T09:25:03;13.13;;;4.10;;
47289;SDS011;33197;52.524;13.444;2023-07-02T09:27:37;6.32;;;3.95;;
47289;SDS011;33197;52.524;13.444;2023-07-02T09:30:09;10.07;;;4.40;;
47289;SDS011;33197;52.524;13.444;2023-07-02T09:32:37;10.73;;;5.13;;
47289;SDS011;33197;52.524;13.444;2023-07-02T09:35:05;7.22;;;4.00;;
47289;SDS011;33197;52.524;13.444;2023-07-02T09:37:32;7.80;;;4.28;;
47289;SDS011;33197;52.524;13.444;2023-07-02T09:40:00;9.75;;;4.65;;
47289;SDS011;33197;52.524;13.444;2023-07-02T09:42:28;8.88;;;4.65;;
47289;SDS011;33197;52.524;13.444;2023-07-02T09:44:56;8.52;;;5.05;;
47289;SDS011;33197;52.524;13.444;2023-07-02T09:47:25;11.30;;;5.53;;
47289;SDS011;33197;52.524;13.444;2023-07-02T09:49:54;8.90;;;4.63;;
47289;SDS011;33197;52.524;13.444;2023-07-02T09:52:22;8.15;;;5.53;;
47289;SDS011;33197;52.524;13.444;2023-07-02T09:54:50;13.48;;;5.28;;
47289;SDS011;33197;52.524;13.444;2023-07-02T09:57:17;13.18;;;6.07;;
47289;SDS011;33197;52.524;13.444;2023-07-02T09:59:44;16.02;;;6.35;;
47289;SDS011;33197;52.524;13.444;2023-07-02T10:02:12;9.77;;;5.07;;
47289;SDS011;33197;52.524;13.444;2023-07-02T10:04:40;11.30;;;5.85;;
47289;SDS011;33197;52.524;13.444;2023-07-02T10:07:08;10.95;;;5.65;;
47289;SDS011;33197;52.524;13.444;2023-07-02T10:09:40;12.52;;;5.15;;
47289;SDS011;33197;52.524;13.444;2023-07-02T10:14:51;16.25;;;6.88;;
47289;SDS011;33197;52.524;13.444;2023-07-02T10:17:23;14.73;;;6.13;;
47289;SDS011;33197;52.524;13.444;2023-07-02T10:20:04;11.85;;;5.65;;
47289;SDS011;33197;52.524;13.444;2023-07-02T10:22:44;13.02;;;5.85;;
47289;SDS011;33197;52.524;13.444;2023-07-02T10:25:12;13.18;;;5.95;;
47289;SDS011;33197;52.524;13.444;2023-07-02T10:27:40;12.20;;;6.22;;
47289;SDS011;33197;52.524;13.444;2023-07-02T10:30:09;16.60;;;6.00;;
47289;SDS011;33197;52.524;13.444;2023-07-02T10:32:37;14.88;;;5.80;;
47289;SDS011;33197;52.524;13.444;2023-07-02T10:35:17;17.63;;;6.10;;
47289;SDS011;33197;52.524;13.444;2023-07-02T10:37:45;14.90;;;6.15;;
47289;SDS011;33197;52.524;13.444;2023-07-02T10:40:12;12.50;;;5.82;;
47289;SDS011;33197;52.524;13.444;2023-07-02T10:42:50;13.52;;;5.60;;
47289;SDS011;33197;52.524;13.444;2023-07-02T10:45:18;13.57;;;6.13;;
47289;SDS011;33197;52.524;13.444;2023-07-02T10:47:46;12.50;;;6.07;;
47289;SDS011;33197;52.524;13.444;2023-07-02T10:50:17;10.52;;;5.28;;
47289;SDS011;33197;52.524;13.444;2023-07-02T10:52:46;11.38;;;6.03;;
47289;SDS011;33197;52.524;13.444;2023-07-02T10:55:19;16.17;;;6.82;;
47289;SDS011;33197;52.524;13.444;2023-07-02T10:57:48;15.70;;;6.63;;
47289;SDS011;33197;52.524;13.444;2023-07-02T11:00:18;15.07;;;6.70;;
47289;SDS011;33197;52.524;13.444;2023-07-02T11:02:46;12.05;;;6.70;;
47289;SDS011;33197;52.524;13.444;2023-07-02T11:05:14;15.60;;;6.47;;
47289;SDS011;33197;52.524;13.444;2023-07-02T11:07:42;14.30;;;6.55;;
47289;SDS011;33197;52.524;13.444;2023-07-02T11:10:10;13.48;;;6.57;;
47289;SDS011;33197;52.524;13.444;2023-07-02T11:12:44;11.68;;;6.28;;
47289;SDS011;33197;52.524;13.444;2023-07-02T11:15:12;14.02;;;6.30;;
47289;SDS011;33197;52.524;13.444;2023-07-02T11:17:41;12.15;;;5.75;;
47289;SDS011;33197;52.524;13.444;2023-07-02T11:20:10;18.35;;;6.85;;
47289;SDS011;33197;52.524;13.444;2023-07-02T11:22:39;15.70;;;6.32;;
47289;SDS011;33197;52.524;13.444;2023-07-02T11:25:08;13.10;;;6.13;;
47289;SDS011;33197;52.524;13.444;2023-07-02T11:27:39;16.63;;;6.38;;
47289;SDS011;33197;52.524;13.444;2023-07-02T11:30:06;15.38;;;7.13;;
47289;SDS011;33197;52.524;13.444;2023-07-02T11:32:35;11.77;;;6.30;;
47289;SDS011;33197;52.524;13.444;2023-07-02T11:35:14;19.08;;;7.07;;
47289;SDS011;33197;52.524;13.444;2023-07-02T11:37:43;13.20;;;6.57;;
47289;SDS011;33197;52.524;13.444;2023-07-02T11:40:10;14.02;;;7.43;;
47289;SDS011;33197;52.524;13.444;2023-07-02T11:42:38;17.58;;;7.15;;
47289;SDS011;33197;52.524;13.444;2023-07-02T11:45:06;12.88;;;6.45;;
47289;SDS011;33197;52.524;13.444;2023-07-02T11:47:33;16.27;;;6.53;;
47289;SDS011;33197;52.524;13.444;2023-07-02T11:50:01;13.80;;;6.68;;
47289;SDS011;33197;52.524;13.444;2023-07-02T11:52:46;14.05;;;6.38;;
47289;SDS011;33197;52.524;13.444;2023-07-02T11:55:14;16.15;;;6.65;;
47289;SDS011;33197;52.524;13.444;2023-07-02T11:57:42;14.82;;;6.03;;
47289;SDS011;33197;52.524;13.444;2023-07-02T12:00:09;13.02;;;6.53;;
47289;SDS011;33197;52.524;13.444;2023-07-02T12:02:37;11.77;;;6.57;;
47289;SDS011;33197;52.524;13.444;2023-07-02T12:05:04;11.85;;;5.95;;
47289;SDS011;33197;52.524;13.444;2023-07-02T12:07:35;10.77;;;7.00;;
47289;SDS011;33197;52.524;13.444;2023-07-02T12:10:02;15.82;;;6.53;;
47289;SDS011;33197;52.524;13.444;2023-07-02T12:12:30;14.05;;;6.35;;
47289;SDS011;33197;52.524;13.444;2023-07-02T12:14:57;14.23;;;6.55;;
47289;SDS011;33197;52.524;13.444;2023-07-02T12:17:24;16.42;;;6.05;;
47289;SDS011;33197;52.524;13.444;2023-07-02T12:19:51;15.57;;;7.18;;
47289;SDS011;33197;52.524;13.444;2023-07-02T12:22:19;13.38;;;6.63;;
47289;SDS011;33197;52.524;13.444;2023-07-02T12:24:48;15.10;;;6.15;;
47289;SDS011;33197;52.524;13.444;2023-07-02T12:27:17;18.15;;;7.57;;
47289;SDS011;33197;52.524;13.444;2023-07-02T12:29:44;13.77;;;5.50;;
47289;SDS011;33197;52.524;13.444;2023-07-02T12:32:11;18.92;;;6.68;;
47289;SDS011;33197;52.524;13.444;2023-07-02T12:34:39;13.95;;;6.20;;
47289;SDS011;33197;52.524;13.444;2023-07-02T12:37:06;13.70;;;6.40;;
47289;SDS011;33197;52.524;13.444;2023-07-02T12:39:34;11.27;;;7.07;;
47289;SDS011;33197;52.524;13.444;2023-07-02T12:42:01;16.75;;;6.80;;
47289;SDS011;33197;52.524;13.444;2023-07-02T12:44:29;12.18;;;6.03;;
47289;SDS011;33197;52.524;13.444;2023-07-02T12:46:56;11.68;;;6.80;;
47289;SDS011;33197;52.524;13.444;2023-07-02T12:49:23;14.52;;;6.78;;
47289;SDS011;33197;52.524;13.444;2023-07-02T12:51:50;16.13;;;6.47;;
47289;SDS011;33197;52.524;13.444;2023-07-02T12:54:18;15.32;;;6.97;;
47289;SDS011;33197;52.524;13.444;2023-07-02T12:56:45;13.13;;;7.72;;
47289;SDS011;33197;52.524;13.444;2023-07-02T12:59:13;18.30;;;7.55;;
47289;SDS011;33197;52.524;13.444;2023-07-02T13:01:41;14.93;;;8.00;;
47289;SDS011;33197;52.524;13.444;2023-07-02T13:04:08;19.58;;;7.78;;
47289;SDS011;33197;52.524;13.444;2023-07-02T13:06:36;17.60;;;7.53;;
47289;SDS011;33197;52.524;13.444;2023-07-02T13:09:07;16.75;;;7.38;;
47289;SDS011;33197;52.524;13.444;2023-07-02T13:11:35;13.45;;;6.95;;
47289;SDS011;33197;52.524;13.444;2023-07-02T13:14:02;17.83;;;7.50;;
47289;SDS011;33197;52.524;13.444;2023-07-02T13:16:29;16.33;;;7.57;;
47289;SDS011;33197;52.524;13.444;2023-07-02T13:18:56;18.85;;;6.57;;
47289;SDS011;33197;52.524;13.444;2023-07-02T13:21:24;18.05;;;7.55;;
47289;SDS011;33197;52.524;13.444;2023-07-02T13:23:51;15.80;;;6.85;;
47289;SDS011;33197;52.524;13.444;2023-07-02T13:26:18;9.85;;;5.70;;
47289;SDS011;33197;52.524;13.444;2023-07-02T13:28:46;17.77;;;7.35;;
47289;SDS011;33197;52.524;13.444;2023-07-02T13:31:15;12.05;;;7.43;;
47289;SDS011;33197;52.524;13.444;2023-07-02T13:33:42;12.35;;;6.38;;
47289;SDS011;33197;52.524;13.444;2023-07-02T13:36:10;18.00;;;6.93;;
47289;SDS011;33197;52.524;13.444;2023-07-02T13:38:37;15.77;;;6.72;;
47289;SDS011;33197;52.524;13.444;2023-07-02T13:41:05;13.55;;;7.05;;
47289;SDS011;33197;52.524;13.444;2023-07-02T13:43:32;11.88;;;6.75;;
47289;SDS011;33197;52.524;13.444;2023-07-02T13:45:59;16.10;;;6.72;;
47289;SDS011;33197;52.524;13.444;2023-07-02T13:48:26;13.88;;;7.10;;
47289;SDS011;33197;52.524;13.444;2023-07-02T13:50:55;14.85;;;6.63;;
47289;SDS011;33197;52.524;13.444;2023-07-02T13:53:23;14.75;;;6.47;;
47289;SDS011;33197;52.524;13.444;2023-07-02T13:55:50;16.90;;;7.88;;
47289;SDS011;33197;52.524;13.444;2023-07-02T13:58:18;14.93;;;6.38;;
47289;SDS011;33197;52.524;13.444;2023-07-02T14:00:56;20.20;;;8.32;;
47289;SDS011;33197;52.524;13.444;2023-07-02T14:03:23;12.60;;;7.22;;
47289;SDS011;33197;52.524;13.444;2023-07-02T14:05:51;19.73;;;7.13;;
47289;SDS011;33197;52.524;13.444;2023-07-02T14:08:18;15.10;;;7.00;;
47289;SDS011;33197;52.524;13.444;2023-07-02T14:10:46;15.05;;;7.25;;
47289;SDS011;33197;52.524;13.444;2023-07-02T14:13:13;13.75;;;6.93;;
47289;SDS011;33197;52.524;13.444;2023-07-02T14:15:41;12.55;;;7.13;;
47289;SDS011;33197;52.524;13.444;2023-07-02T14:18:08;12.57;;;6.15;;
47289;SDS011;33197;52.524;13.444;2023-07-02T14:20:35;15.32;;;7.40;;
47289;SDS011;33197;52.524;13.444;2023-07-02T14:23:02;15.95;;;7.25;;
47289;SDS011;33197;52.524;13.444;2023-07-02T14:25:30;14.80;;;7.47;;
47289;SDS011;33197;52.524;13.444;2023-07-02T14:28:06;14.55;;;6.88;;
47289;SDS011;33197;52.524;13.444;2023-07-02T14:30:34;12.60;;;7.10;;
47289;SDS011;33197;52.524;13.444;2023-07-02T14:33:01;13.98;;;7.55;;
47289;SDS011;33197;52.524;13.444;2023-07-02T14:35:30;17.95;;;7.40;;
47289;SDS011;33197;52.524;13.444;2023-07-02T14:37:58;20.70;;;7.28;;
47289;SDS011;33197;52.524;13.444;2023-07-02T14:40:25;12.95;;;7.47;;
47289;SDS011;33197;52.524;13.444;2023-07-02T14:42:53;10.90;;;6.28;;
47289;SDS011;33197;52.524;13.444;2023-07-02T14:45:20;11.23;;;5.95;;